• Join FlightAware (Why Join?)
  • Login
  • US Flag 
Rudolph Flight #1: Arrived! 
07:52PM EST


 

Airport Tracker/Info


-or-


 

Live Flight TrackerFlight Track Log ✈ N566UA ✈ 07-Apr-2013 ✈ KIAD - KDEN

Flight Track Log - Related Links

Times and Time Zones

All times are in EDT time to prevent confusion due to time zone crossing. See the N566UA flight status page for this flight to view local times or setup timezone preferences in your user account.

Time Position Orientation Groundspeed Altitude Reporting Facility
EDT Latitude Longitude Course Direction KTS MPH feet Rate Location/Type
10:04AM 38.9333 -77.5500 270° West 185 213 3,300  Level Potomac TRACON
10:05AM 38.9125 -77.6431 254° West 221 254 4,900 1,500 Climbing Washington Center
10:06AM 38.8922 -77.7333 254° West 234 269 6,800 2,340 Climbing Washington Center
10:07AM 38.9114 -78.0786 288° West  Level FlightAware Approximate
10:07AM 38.8844 -77.8131 263° West 246 283 9,600  Level Washington Center
10:08AM 38.9499 -78.1999 303° West  Level FlightAware Approximate
10:08AM 38.8972 -77.9147 279° West 261 300 11,200  Level Washington Center
10:09AM 38.9500 -78.3318 270° West  Level FlightAware Approximate
10:09AM 38.9200 -78.0250 285° West 291 335 14,200  Level Washington Center
10:10AM 38.9428 -78.1406 284° West 314 361 16,800 2,340 Climbing Washington Center
10:11AM 38.9611 -78.2558 282° West 325 374 18,900 2,100 Climbing Washington Center
10:12AM 38.9625 -78.3761 271° West 336 387 21,000 1,860 Climbing Washington Center
10:13AM 38.9658 -78.5017 272° West 339 390 22,700 1,740 Climbing Washington Center
10:14AM 38.9689 -78.6272 272° West 351 404 24,500 1,620 Climbing Washington Center
10:15AM 38.9739 -78.7583 273° West 364 419 26,000 1,500 Climbing Washington Center
10:16AM 38.9764 -78.8947 271° West 374 430 27,500 1,380 Climbing Washington Center
10:17AM 38.9789 -79.0336 271° West 387 445 28,800 1,260 Climbing Washington Center
10:18AM 38.9808 -79.1753 271° West 393 452 30,100 1,200 Climbing Washington Center
10:19AM 38.9850 -79.3197 272° West 404 465 31,300 1,500 Climbing Washington Center
10:20AM 38.9889 -79.4614 272° West 404 465 33,100 1,560 Climbing Washington Center
10:21AM 38.9986 -79.6036 275° West 399 459 34,500 1,080 Climbing Washington Center
10:22AM 38.9992 -79.8125 270° West 378 435 36,000 540 Climbing Indianapolis Center
10:24AM 39.0019 -79.9667 271° West 370 426 36,000  Level Indianapolis Center
10:25AM 39.0044 -80.0931 271° West 366 421 36,000  Level Indianapolis Center
10:26AM 39.0058 -80.2156 271° West 378 435 36,000  Level Indianapolis Center
10:27AM 39.0086 -80.3767 271° West 376 433 36,000  Level Indianapolis Center
10:28AM 39.0097 -80.5122 271° West 380 437 36,000  Level Indianapolis Center
10:29AM 39.0122 -80.6500 271° West 384 442 36,000  Level Indianapolis Center
10:30AM 39.0122 -80.7839 270° West 378 435 36,000  Level Indianapolis Center
10:31AM 39.0522 -80.9117 292° West 393 452 36,000  Level Indianapolis Center
10:32AM 39.1039 -81.0333 299° West 391 450 36,000  Level Indianapolis Center
10:33AM 39.1650 -81.1808 298° West 391 450 36,000  Level Indianapolis Center
10:34AM 39.2156 -81.3033 298° West 390 449 36,000  Level Indianapolis Center
10:35AM 39.2656 -81.4264 298° West 389 448 36,000  Level Indianapolis Center
10:36AM 39.3158 -81.5489 298° West 389 448 36,000  Level Indianapolis Center
10:37AM 39.3658 -81.6719 298° West 389 448 36,000  Level Indianapolis Center
10:38AM 39.4153 -81.7944 298° West 387 445 36,000  Level Indianapolis Center
10:39AM 39.4647 -81.9194 297° West 389 448 36,000  Level Indianapolis Center
10:40AM 39.5231 -82.0686 297° West 389 448 36,000  Level Indianapolis Center
10:41AM 39.5694 -82.1844 297° West 387 445 36,000 -60 Level Indianapolis Center
10:42AM 39.6206 -82.3097 298° West 389 448 35,900  Descending Indianapolis Center
10:43AM 39.6694 -82.4358 297° West 389 448 36,000  Climbing Indianapolis Center
10:44AM 39.7289 -82.5828 298° West 391 450 36,000  Level Indianapolis Center
10:45AM 39.7775 -82.7108 296° West 392 451 36,000 -60 Level Indianapolis Center
10:46AM 39.8275 -82.8375 297° West 391 450 35,900  Descending Indianapolis Center
10:47AM 39.8769 -82.9633 297° West 389 448 36,000  Climbing Indianapolis Center
10:48AM 39.9258 -83.0900 297° West 389 448 36,000  Level Indianapolis Center
10:49AM 39.9750 -83.2167 297° West 392 451 36,000  Level Indianapolis Center
10:50AM 40.0239 -83.3422 297° West 389 448 36,000  Level Indianapolis Center
10:51AM 40.0711 -83.4686 296° West 390 449 36,000 -60 Level Indianapolis Center
10:52AM 40.1267 -83.6161 296° West 389 448 35,900  Descending Indianapolis Center
10:53AM 40.1753 -83.7436 297° West 390 449 36,000  Climbing Indianapolis Center
10:54AM 40.2231 -83.8711 296° West 388 447 36,000  Level Indianapolis Center
10:55AM 40.2711 -83.9978 296° West 387 445 36,000  Level Indianapolis Center
10:56AM 40.2972 -84.1336 284° West 383 441 36,000  Level Indianapolis Center
10:57AM 40.3114 -84.2714 278° West 380 437 36,000 -60 Level Indianapolis Center
10:58AM 40.3244 -84.4100 277° West 381 438 35,900  Descending Indianapolis Center
11:00AM 40.3389 -84.5497 278° West 384 442 36,000  Climbing Indianapolis Center
11:01AM 40.3519 -84.6897 277° West 383 441 36,000  Level Indianapolis Center
11:02AM 40.3653 -84.8297 277° West 385 443 36,000  Level Indianapolis Center
11:03AM 40.3794 -84.9836 277° West 389 448 36,000  Level Indianapolis Center
11:04AM 40.3956 -85.1464 277° West 388 447 36,000  Level Chicago Center
11:05AM 40.4083 -85.2886 277° West 389 448 36,000  Level Chicago Center
11:06AM 40.4211 -85.4303 277° West 390 449 36,000  Level Chicago Center
11:07AM 40.4353 -85.5956 276° West 389 448 36,000  Level Chicago Center
11:08AM 40.4486 -85.7375 277° West 389 448 36,000  Level Chicago Center
11:09AM 40.4603 -85.8781 276° West 386 444 36,000  Level Chicago Center
11:10AM 40.4731 -86.0181 277° West 386 444 36,000  Level Chicago Center
11:11AM 40.4850 -86.1589 276° West 387 445 36,000  Level Chicago Center
11:12AM 40.4953 -86.2994 276° West 386 444 36,000  Level Chicago Center
11:13AM 40.5072 -86.4397 276° West 385 443 36,000  Level Chicago Center
11:14AM 40.5194 -86.5811 277° West 388 447 36,000  Level Chicago Center
11:15AM 40.5289 -86.7222 275° West 389 448 36,000  Level Chicago Center
11:16AM 40.5425 -86.8875 276° West 388 447 36,000  Level Chicago Center
11:17AM 40.5536 -87.0289 276° West 389 448 36,000  Level Chicago Center
11:18AM 40.5744 -87.1489 283° West 394 453 36,000  Level Chicago Center
11:19AM 40.6156 -87.3111 289° West 392 451 36,000  Level Chicago Center
11:20AM 40.6506 -87.4467 289° West 391 450 36,000  Level Chicago Center
11:21AM 40.6850 -87.5828 288° West 394 453 36,000  Level Chicago Center
11:22AM 40.7186 -87.7192 288° West 392 451 36,000  Level Chicago Center
11:23AM 40.7514 -87.8531 288° West 386 444 36,000  Level Chicago Center
11:24AM 40.7847 -87.9894 288° West 389 448 36,000  Level Chicago Center
11:25AM 40.8178 -88.1250 288° West 389 448 36,000  Level Chicago Center
11:26AM 40.8569 -88.2869 288° West 387 445 36,000  Level Chicago Center
11:27AM 40.8894 -88.4231 288° West 387 445 36,000  Level Chicago Center
11:28AM 40.9222 -88.5592 288° West 388 447 36,000  Level Chicago Center
11:29AM 40.9547 -88.6944 288° West 386 444 36,000  Level Chicago Center
11:30AM 40.9853 -88.8308 287° West 387 445 36,000  Level Chicago Center
11:31AM 41.0175 -88.9656 288° West 384 442 36,000  Level Chicago Center
11:33AM 41.0483 -89.1017 287° West 384 442 36,000  Level Chicago Center
11:34AM 41.0811 -89.2417 287° West 386 444 36,000  Level Chicago Center
11:35AM 41.1117 -89.3761 287° West 385 443 36,000  Level Chicago Center
11:36AM 41.1494 -89.5392 287° West 387 445 36,000  Level Chicago Center
11:37AM 41.1781 -89.6761 286° West 388 447 36,000  Level Chicago Center
11:38AM 41.2022 -89.8144 283° West 387 445 36,000  Level Chicago Center
11:39AM 41.2278 -89.9533 284° West 389 448 36,000  Level Chicago Center
11:40AM 41.2539 -90.0917 284° West 388 447 36,000  Level Chicago Center
11:41AM 41.2803 -90.2297 284° West 387 445 36,000  Level Chicago Center
11:42AM 41.3106 -90.3969 284° West 388 447 36,000  Level Chicago Center
11:43AM 41.3358 -90.5358 284° West 387 445 36,000 420 Level Chicago Center
11:44AM 41.3394 -90.6822 272° West 398 458 36,900 780 Climbing Chicago Center
11:45AM 41.3406 -90.8253 271° West 390 449 37,600 480 Climbing Chicago Center
11:46AM 41.3397 -90.9681 270° West 389 448 38,000 180 Climbing Chicago Center
11:47AM 41.3375 -91.1103 269° West 385 443 38,000  Level Chicago Center
11:48AM 41.3356 -91.2542 269° West 388 447 38,000  Level Chicago Center
11:49AM 41.3339 -91.4239 269° West 388 447 38,000  Level Chicago Center
11:50AM 41.3314 -91.5675 269° West 388 447 38,000  Level Chicago Center
11:51AM 41.3297 -91.7106 269° West 390 449 38,000  Level Chicago Center
11:52AM 41.3286 -91.8553 269° West 392 451 38,000  Level Chicago Center
11:53AM 41.3275 -91.9975 269° West 388 447 38,000  Level Chicago Center
11:54AM 41.3239 -92.1683 268° West 387 445 38,000  Level Chicago Center
11:55AM 41.3214 -92.3117 269° West 388 447 38,000  Level Chicago Center
11:56AM 41.3192 -92.4522 269° West 388 447 38,000  Level Chicago Center
11:57AM 41.3156 -92.5928 268° West 385 443 38,000  Level Chicago Center
11:58AM 41.3144 -92.6522 269° West 388 447 38,000  Level Minneapolis Center
11:59AM 41.3122 -92.7931 269° West 387 445 38,000  Level Minneapolis Center
12:00PM 41.3094 -92.9356 269° West 389 448 38,000  Level Minneapolis Center
12:01PM 41.3058 -93.0761 268° West 387 445 38,000  Level Minneapolis Center
12:02PM 41.3019 -93.2475 268° West 388 447 38,000  Level Minneapolis Center
12:03PM 41.2972 -93.3894 268° West 388 447 38,000  Level Minneapolis Center
12:04PM 41.2947 -93.5300 269° West 385 443 38,000  Level Minneapolis Center
12:05PM 41.2931 -93.6681 269° West 381 438 38,000  Level Minneapolis Center
12:06PM 41.2883 -93.8111 268° West 386 444 38,000  Level Minneapolis Center
12:07PM 41.2839 -93.9533 268° West 389 448 38,000  Level Minneapolis Center
12:08PM 41.2781 -94.1242 267° West 389 448 38,000  Level Minneapolis Center
12:09PM 41.2736 -94.2622 268° West 389 448 38,000  Level Minneapolis Center
12:10PM 41.2686 -94.4067 267° West 390 449 38,000  Level Minneapolis Center
12:11PM 41.2639 -94.5514 268° West 391 450 38,000  Level Minneapolis Center
12:12PM 41.2575 -94.6947 267° West 390 449 38,000  Level Minneapolis Center
12:13PM 41.2519 -94.8403 267° West 391 450 38,000  Level Minneapolis Center
12:14PM 41.2450 -95.0456 267° West 397 457 38,000  Level Minneapolis Center
12:15PM 41.2386 -95.1917 267° West 398 458 38,000  Level Minneapolis Center
12:16PM 41.2322 -95.3381 267° West 398 458 38,000  Level Minneapolis Center
12:17PM 41.2247 -95.4844 266° West 398 458 38,000  Level Minneapolis Center
12:18PM 41.2183 -95.6369 267° West 398 458 38,000  Level Minneapolis Center
12:19PM 41.2117 -95.7833 267° West 397 457 38,000  Level Minneapolis Center
12:20PM 41.2056 -95.9297 267° West 396 456 38,000  Level Minneapolis Center
12:21PM 41.1978 -96.0758 266° West 396 456 38,000  Level Minneapolis Center
12:22PM 41.1903 -96.2219 266° West 396 456 38,000  Level Minneapolis Center
12:23PM 41.1831 -96.3717 266° West 395 455 38,000  Level Minneapolis Center
12:24PM 41.1756 -96.5178 266° West 395 455 38,000  Level Minneapolis Center
12:25PM 41.1664 -96.6633 265° West 394 453 38,000  Level Minneapolis Center
12:27PM 41.1569 -96.8350 266° West 390 449 38,000  Level Minneapolis Center
12:28PM 41.1494 -96.9783 266° West 390 449 38,000  Level Minneapolis Center
12:29PM 41.1406 -97.1219 265° West 390 449 38,000  Level Minneapolis Center
12:30PM 41.1325 -97.2656 266° West 390 449 38,000  Level Minneapolis Center
12:31PM 41.1233 -97.4067 265° West 391 450 38,000  Level Minneapolis Center
12:32PM 41.1144 -97.5508 265° West 393 452 38,000  Level Minneapolis Center
12:33PM 41.1039 -97.7261 265° West 396 456 38,000  Level Minneapolis Center
12:34PM 41.0944 -97.8717 265° West 396 456 38,000  Level Minneapolis Center
12:35PM 41.0861 -98.0175 266° West 397 457 38,000  Level Minneapolis Center
12:36PM 41.0764 -98.1653 265° West 400 460 38,000  Level Minneapolis Center
12:37PM 41.0658 -98.3106 265° West 398 458 38,000  Level Minneapolis Center
12:38PM 41.0517 -98.4597 263° West 400 460 38,000  Level Minneapolis Center
12:39PM 41.0356 -98.6056 262° West 401 461 38,000  Level Minneapolis Center
12:40PM 41.0172 -98.7528 261° West 404 465 38,000  Level Minneapolis Center
12:41PM 41.0014 -98.9017 262° West 407 468 38,000  Level Minneapolis Center
12:42PM 40.9806 -99.0825 261° West 413 475 38,000  Level Minneapolis Center
12:43PM 40.9642 -99.2158 261° West 419 482 38,000  Level Denver Center
12:44PM 40.9469 -99.3675 261° West 417 480 38,000  Level Denver Center
12:45PM 40.9292 -99.5167 261° West 412 474 38,000  Level Denver Center
12:46PM 40.9108 -99.6658 261° West 411 473 38,000  Level Denver Center
12:47PM 40.8897 -99.8408 261° West 414 476 38,000  Level Denver Center
12:48PM 40.8714 -99.9853 261° West 416 479 38,000  Level Denver Center
12:49PM 40.8500 -100.1556 261° West 420 483 38,000  Level Denver Center
12:50PM 40.8314 -100.3017 260° West 420 483 38,000  Level Denver Center
12:51PM 40.8106 -100.4697 261° West 415 478 38,000  Level Denver Center
12:52PM 40.7928 -100.6139 261° West 414 476 38,000  Level Denver Center
12:53PM 40.7703 -100.7594 259° West 411 473 38,000  Level Denver Center
12:54PM 40.7419 -100.9247 257° West 407 468 38,000  Level Denver Center
12:55PM 40.7186 -101.0647 258° West 407 468 38,000  Level Denver Center
12:56PM 40.6906 -101.2258 257° West 404 465 38,000  Level Denver Center
12:57PM 40.6667 -101.3644 257° West 406 467 38,000  Level Denver Center
12:58PM 40.6378 -101.5272 257° West 408 470 38,000  Level Denver Center
01:00PM 40.6125 -101.6656 257° West 407 468 38,000  Level Denver Center
01:01PM 40.5794 -101.8497 257° West 405 466 38,000  Level Denver Center
01:02PM 40.5544 -101.9889 257° West 408 470 38,000  Level Denver Center
01:03PM 40.5258 -102.1492 257° West 402 463 38,000  Level Denver Center
01:04PM 40.4986 -102.2858 255° West 405 466 38,000  Level Denver Center
01:05PM 40.4697 -102.4469 257° West 405 466 38,000  Level Denver Center
01:06PM 40.4428 -102.5853 256° West 408 470 38,000  Level Denver Center
01:07PM 40.4144 -102.7456 257° West 407 468 38,000 -600 Level Denver Center
01:08PM 40.3864 -102.8914 256° West 409 471 36,800 -1,380 Descending Denver Center
01:09PM 40.3592 -103.0333 256° West 402 463 35,200 -2,280 Descending Denver Center
01:10PM 40.3328 -103.1758 256° West 399 459 32,100 -2,700 Descending Denver Center
01:11PM 40.3053 -103.3172 256° West 398 458 29,700 -2,160 Descending Denver Center
01:12PM 40.2781 -103.4553 256° West 393 452 27,300 -2,520 Descending Denver Center
01:13PM 40.2425 -103.6400 256° West 389 448 24,100 -2,460 Descending Denver Center
01:14PM 40.2147 -103.7747 255° West 392 451 22,300 -1,320 Descending Denver Center
01:15PM 40.1847 -103.8894 251° West 336 387 21,400 -1,260 Descending Denver Center
01:16PM 40.1367 -103.9928 239° Southwest 310 357 19,700 -1,500 Descending Denver Center
01:17PM 40.0928 -104.0861 238° Southwest 303 349 18,300 -1,380 Descending Denver Center
01:18PM 40.0564 -104.1639 239° Southwest 299 344 16,900 -1,500 Descending Denver Center
01:19PM 40.0042 -104.2767 239° Southwest 292 336 15,200 -1,560 Descending Denver Center
01:21PM 39.9575 -104.3753 238° Southwest 296 341 13,700 -1,440 Descending Denver Center
01:21PM 39.9167 -104.4500 235° Southwest 299 344 12,500 -1,260 Descending Denver TRACON
01:22PM 39.8500 -104.5000 210° Southwest 293 337 11,400 -900 Descending Denver TRACON
01:23PM 39.7833 -104.5000 180° South 245 282 10,800 -840 Descending Denver TRACON
01:24PM 39.7658 -104.5011 183° South 248 285 10,400 -1,380 Descending Denver Center
01:25PM 39.7039 -104.5161 191° South 229 264 9,100 -1,200 Descending Denver Center
01:26PM 39.7042 -104.5939 270° West 208 239 8,000 -1,080 Descending Denver Center